^^
Meteo Knjazevac Station Historical Data
Daily Summary for March 2, 2021 Units:  English    Metric   Both
Daily Weekly Monthly Yearly Custom
  High: Low: Average:
Temperature: 55.9 °F 39.9 °F 48.6 °F
Dew Point: 41.6 °F 33.3 °F 38.3 °F
Humidity: 79% 57% 68%
Wind Speed: 10mph 0mph 4.8mph
Wind Gust: 20mph - -
Wind- - SSE
Pressure: 29.92 in 29.71 in -
Precipitation: 0.00 in    
Historical Graphs
 
 
Tabular Data for March 2, 2021
Time Temperature Dew Point Pressure Wind Wind Speed Wind Gust Humidity Rainfall Rate (Hourly) solar Conditions
00:00 40.6 °F 33.3 °F 29.92 in SE 5 mph 7 mph 75% 0.00 in 0 W/m2
00:10 40.1 °F 33.5 °F 29.92 in ENE 2 mph 7 mph 77% 0.00 in 0 W/m2
00:20 40.5 °F 33.8 °F 29.92 in SSE 1 mph 8 mph 77% 0.00 in 0 W/m2
00:30 40.3 °F 33.6 °F 29.92 in SSE 1 mph 8 mph 77% 0.00 in 0 W/m2
00:40 40.5 °F 34.1 °F 29.92 in SE 3 mph 9 mph 78% 0.00 in 0 W/m2
00:50 40.5 °F 33.8 °F 29.92 in South 3 mph 8 mph 77% 0.00 in 0 W/m2
01:00 40.3 °F 34 °F 29.92 in NNW 2 mph 5 mph 78% 0.00 in 0 W/m2
01:10 39.9 °F 33.9 °F 29.92 in NNE 3 mph 12 mph 79% 0.00 in 0 W/m2
01:20 40.6 °F 34.6 °F 29.91 in ESE 7 mph 13 mph 79% 0.00 in 0 W/m2
01:30 41 °F 34.7 °F 29.91 in ESE 6 mph 13 mph 78% 0.00 in 0 W/m2
01:40 41 °F 34.7 °F 29.91 in SE 1 mph 10 mph 78% 0.00 in 0 W/m2
01:50 40.8 °F 34.5 °F 29.91 in SSE 1 mph 7 mph 78% 0.00 in 0 W/m2
02:00 40.6 °F 34.3 °F 29.91 in Calm   7 mph 78% 0.00 in 0 W/m2
02:10 40.8 °F 34.5 °F 29.91 in SE 3 mph 10 mph 78% 0.00 in 0 W/m2
02:20 41.2 °F 34.5 °F 29.91 in SE 5 mph 9 mph 77% 0.00 in 0 W/m2
02:30 41.2 °F 34.5 °F 29.90 in SE 3 mph 10 mph 77% 0.00 in 0 W/m2
02:40 41.2 °F 34.5 °F 29.90 in SE 6 mph 9 mph 77% 0.00 in 0 W/m2
02:50 41.4 °F 34.7 °F 29.90 in SE 3 mph 10 mph 77% 0.00 in 0 W/m2
03:00 41.2 °F 34.5 °F 29.90 in SE 2 mph 6 mph 77% 0.00 in 0 W/m2
03:10 41 °F 34.7 °F 29.89 in SSW 3 mph 7 mph 78% 0.00 in 0 W/m2
03:20 41 °F 34.7 °F 29.89 in South 2 mph 7 mph 78% 0.00 in 0 W/m2
03:30 41.5 °F 34.9 °F 29.89 in South 3 mph 7 mph 77% 0.00 in 0 W/m2
03:40 41.9 °F 35.2 °F 29.88 in South 3 mph 8 mph 77% 0.00 in 0 W/m2
03:50 42.4 °F 35.1 °F 29.88 in South 7 mph 10 mph 75% 0.00 in 0 W/m2
04:00 42.6 °F 35.2 °F 29.88 in South 6 mph 10 mph 75% 0.00 in 0 W/m2
04:10 42.8 °F 35.4 °F 29.88 in SSW 6 mph 10 mph 75% 0.00 in 0 W/m2
04:20 42.8 °F 35.1 °F 29.88 in SSW 5 mph 9 mph 74% 0.00 in 0 W/m2
04:30 43 °F 35.3 °F 29.88 in SW 2 mph 7 mph 74% 0.00 in 0 W/m2
04:40 42.8 °F 35.1 °F 29.88 in SSW 2 mph 6 mph 74% 0.00 in 0 W/m2
04:50 42.8 °F 35.4 °F 29.88 in SSW 3 mph 6 mph 75% 0.00 in 0 W/m2
05:00 42.8 °F 35.4 °F 29.87 in SW 3 mph 7 mph 75% 0.00 in 0 W/m2
05:10 42.8 °F 35.4 °F 29.87 in SW 5 mph 7 mph 75% 0.00 in 0 W/m2
05:20 42.6 °F 35.2 °F 29.87 in WSW 3 mph 8 mph 75% 0.00 in 0 W/m2
05:30 42.6 °F 35.2 °F 29.86 in SW 3 mph 7 mph 75% 0.00 in 0 W/m2
05:40 42.8 °F 35.4 °F 29.86 in Calm   7 mph 75% 0.00 in 0 W/m2
05:50 42.4 °F 35.1 °F 29.86 in Calm   5 mph 75% 0.00 in 0 W/m2
06:00 42.4 °F 35.1 °F 29.86 in SSW 2 mph 6 mph 75% 0.00 in 0 W/m2
06:10 42.8 °F 35.4 °F 29.86 in SW 3 mph 7 mph 75% 0.00 in 0 W/m2
06:20 43 °F 35.6 °F 29.86 in SW 2 mph 6 mph 75% 0.00 in 0 W/m2
06:30 43 °F 35.6 °F 29.86 in Calm   5 mph 75% 0.00 in 0 W/m2
06:40 43.2 °F 35.4 °F 29.86 in East 1 mph 3 mph 74% 0.00 in 0 W/m2
06:50 43 °F 35.6 °F 29.86 in Calm   4 mph 75% 0.00 in 5 W/m2
07:10 43.9 °F 35.8 °F 29.86 in SW 3 mph 10 mph 73% 0.00 in 18 W/m2
07:30 44.2 °F 36.1 °F 29.86 in SSW 3 mph 9 mph 73% 0.00 in 27 W/m2
07:40 44.6 °F 36.5 °F 29.86 in South 5 mph 10 mph 73% 0.00 in 33 W/m2
07:50 44.8 °F 36.3 °F 29.86 in SSW 3 mph 8 mph 72% 0.00 in 51 W/m2
08:00 45 °F 36.5 °F 29.86 in South 3 mph 8 mph 72% 0.00 in 71 W/m2
08:10 45.2 °F 36.7 °F 29.86 in South 5 mph 8 mph 72% 0.00 in 82 W/m2
08:20 45.5 °F 37 °F 29.86 in South 5 mph 8 mph 72% 0.00 in 79 W/m2
08:30 45.9 °F 36.6 °F 29.86 in South 5 mph 10 mph 70% 0.00 in 98 W/m2
08:40 46.3 °F 37 °F 29.86 in South 5 mph 12 mph 70% 0.00 in 98 W/m2
08:50 46.8 °F 37.1 °F 29.86 in SSE 5 mph 12 mph 69% 0.00 in 94 W/m2
09:00 46.9 °F 37.3 °F 29.86 in SSE 2 mph 9 mph 69% 0.00 in 109 W/m2
09:10 47.1 °F 37.5 °F 29.86 in South 2 mph 7 mph 69% 0.00 in 131 W/m2
09:20 47.7 °F 38 °F 29.86 in SSE 6 mph 9 mph 69% 0.00 in 162 W/m2
09:30 48.2 °F 38.2 °F 29.85 in SE 7 mph 13 mph 68% 0.00 in 177 W/m2
09:40 48.9 °F 37.7 °F 29.86 in SE 6 mph 16 mph 65% 0.00 in 241 W/m2
09:50 49.3 °F 38 °F 29.85 in SSE 5 mph 14 mph 65% 0.00 in 202 W/m2
10:00 49.6 °F 38 °F 29.85 in SSE 6 mph 17 mph 64% 0.00 in 175 W/m2
10:10 50 °F 38.3 °F 29.84 in SE 6 mph 15 mph 64% 0.00 in 181 W/m2
10:20 50.2 °F 38.1 °F 29.84 in SE 8 mph 18 mph 63% 0.00 in 177 W/m2
10:30 50.5 °F 38 °F 29.84 in SE 8 mph 20 mph 62% 0.00 in 179 W/m2
10:40 51.1 °F 38.5 °F 29.84 in SE 9 mph 17 mph 62% 0.00 in 306 W/m2
10:50 51.6 °F 38.2 °F 29.83 in SE 9 mph 17 mph 60% 0.00 in 227 W/m2
11:00 52.4 °F 38.9 °F 29.83 in SE 10 mph 17 mph 60% 0.00 in 225 W/m2
11:10 52.7 °F 39.2 °F 29.83 in SE 5 mph 16 mph 60% 0.00 in 349 W/m2
11:20 53.8 °F 39.8 °F 29.83 in SE 9 mph 18 mph 59% 0.00 in 353 W/m2
11:30 54.7 °F 40.2 °F 29.83 in SE 9 mph 17 mph 58% 0.00 in 352 W/m2
11:40 55 °F 40.5 °F 29.82 in ESE 8 mph 18 mph 58% 0.00 in 349 W/m2
11:50 55.8 °F 40.7 °F 29.82 in SE 9 mph 16 mph 57% 0.00 in 281 W/m2
12:00 55.4 °F 40.4 °F 29.81 in SE 8 mph 16 mph 57% 0.00 in 141 W/m2
12:10 55 °F 40.5 °F 29.81 in SE 9 mph 16 mph 58% 0.00 in 149 W/m2
12:20 54.9 °F 40.4 °F 29.81 in SE 7 mph 15 mph 58% 0.00 in 169 W/m2
12:30 54.9 °F 40.4 °F 29.80 in SE 8 mph 15 mph 58% 0.00 in 179 W/m2
12:40 55 °F 40.5 °F 29.79 in SE 10 mph 16 mph 58% 0.00 in 166 W/m2
12:50 55.1 °F 41 °F 29.79 in SE 6 mph 15 mph 59% 0.00 in 255 W/m2
13:00 55.4 °F 40.9 °F 29.78 in SE 8 mph 14 mph 58% 0.00 in 204 W/m2
13:10 55.9 °F 41.4 °F 29.78 in SSE 8 mph 17 mph 58% 0.00 in 232 W/m2
13:20 55.8 °F 41.2 °F 29.78 in SSE 8 mph 13 mph 58% 0.00 in 130 W/m2
13:30 55.8 °F 41.2 °F 29.78 in SE 7 mph 14 mph 58% 0.00 in 177 W/m2
13:40 55.8 °F 41.2 °F 29.78 in SE 6 mph 12 mph 58% 0.00 in 151 W/m2
13:50 55.8 °F 41.2 °F 29.77 in SSE 7 mph 15 mph 58% 0.00 in 117 W/m2
14:00 55.6 °F 41 °F 29.77 in SE 7 mph 17 mph 58% 0.00 in 83 W/m2
14:10 55.2 °F 41.1 °F 29.77 in SE 5 mph 13 mph 59% 0.00 in 48 W/m2
14:20 55.2 °F 41.1 °F 29.76 in SE 2 mph 9 mph 59% 0.00 in 55 W/m2
14:30 55 °F 41.4 °F 29.77 in ESE 2 mph 7 mph 60% 0.00 in 65 W/m2
14:40 55 °F 41 °F 29.77 in ESE 6 mph 8 mph 59% 0.00 in 54 W/m2
14:50 54.9 °F 41.2 °F 29.77 in ESE 3 mph 8 mph 60% 0.00 in 49 W/m2
15:00 54.9 °F 41.2 °F 29.76 in SE 5 mph 11 mph 60% 0.00 in 64 W/m2
15:10 55.2 °F 41.6 °F 29.76 in SE 5 mph 12 mph 60% 0.00 in 46 W/m2
15:20 55.2 °F 41.1 °F 29.76 in SE 7 mph 14 mph 59% 0.00 in 29 W/m2
15:30 54.9 °F 40.8 °F 29.75 in SE 7 mph 16 mph 59% 0.00 in 13 W/m2
15:40 54.3 °F 40.7 °F 29.75 in ESE 7 mph 14 mph 60% 0.00 in 12 W/m2
15:50 54.1 °F 40.5 °F 29.75 in SE 7 mph 12 mph 60% 0.00 in 7 W/m2
16:00 53.7 °F 41 °F 29.75 in SE 5 mph 10 mph 62% 0.00 in 0 W/m2
16:10 53.2 °F 40.5 °F 29.75 in SSE 5 mph 8 mph 62% 0.00 in 0 W/m2
16:20 52.9 °F 40.6 °F 29.75 in SSE 5 mph 10 mph 63% 0.00 in 0 W/m2
16:30 52.5 °F 40.3 °F 29.76 in SSE 6 mph 10 mph 63% 0.00 in 0 W/m2
16:40 52.3 °F 40.1 °F 29.76 in SSE 5 mph 14 mph 63% 0.00 in 0 W/m2
16:50 52 °F 40.2 °F 29.76 in South 5 mph 7 mph 64% 0.00 in 0 W/m2
17:00 51.7 °F 39.9 °F 29.76 in South 3 mph 9 mph 64% 0.00 in 0 W/m2
17:10 51.4 °F 40.1 °F 29.76 in South 5 mph 9 mph 65% 0.00 in 0 W/m2
17:20 51.2 °F 39.8 °F 29.76 in South 2 mph 8 mph 65% 0.00 in 0 W/m2
17:30 50.7 °F 40.2 °F 29.76 in SSE 3 mph 6 mph 67% 0.00 in 0 W/m2
17:40 50.5 °F 40 °F 29.77 in SSE 2 mph 8 mph 67% 0.00 in 0 W/m2
17:50 50.4 °F 40.2 °F 29.77 in SSW 2 mph 6 mph 68% 0.00 in 0 W/m2
18:00 50.2 °F 40 °F 29.76 in SSW 1 mph 5 mph 68% 0.00 in 0 W/m2
18:10 50 °F 39.8 °F 29.76 in South 2 mph 5 mph 68% 0.00 in 0 W/m2
18:20 50 °F 40.2 °F 29.75 in SSE 5 mph 8 mph 69% 0.00 in 0 W/m2
18:30 50.7 °F 40.5 °F 29.75 in SSE 5 mph 10 mph 68% 0.00 in 0 W/m2
18:40 51 °F 40.4 °F 29.76 in SE 3 mph 9 mph 67% 0.00 in 0 W/m2
18:50 51.1 °F 40.5 °F 29.75 in SE 5 mph 12 mph 67% 0.00 in 0 W/m2
19:00 51.4 °F 40.1 °F 29.75 in SE 7 mph 15 mph 65% 0.00 in 0 W/m2
19:10 51.4 °F 40.1 °F 29.75 in SE 5 mph 13 mph 65% 0.00 in 0 W/m2
19:20 51.4 °F 40.1 °F 29.75 in SE 6 mph 19 mph 65% 0.00 in 0 W/m2
19:30 51.3 °F 39.9 °F 29.75 in SSE 5 mph 11 mph 65% 0.00 in 0 W/m2
19:40 51.3 °F 39.9 °F 29.75 in SE 7 mph 12 mph 65% 0.00 in 0 W/m2
19:50 51.3 °F 39.9 °F 29.75 in SE 6 mph 12 mph 65% 0.00 in 0 W/m2
20:00 51.3 °F 39.9 °F 29.75 in SE 6 mph 10 mph 65% 0.00 in 0 W/m2
20:10 51.3 °F 39.9 °F 29.75 in SE 5 mph 14 mph 65% 0.00 in 0 W/m2
20:20 51.3 °F 40.7 °F 29.74 in SSE 6 mph 13 mph 67% 0.00 in 0 W/m2
20:30 51.1 °F 40.1 °F 29.73 in SSE 7 mph 16 mph 66% 0.00 in 0 W/m2
20:40 51.1 °F 40.5 °F 29.73 in SSE 6 mph 13 mph 67% 0.00 in 0 W/m2
20:50 51.2 °F 40.2 °F 29.73 in SSE 6 mph 15 mph 66% 0.00 in 0 W/m2
21:00 51.4 °F 40.1 °F 29.72 in SE 9 mph 20 mph 65% 0.00 in 0 W/m2
21:10 51.4 °F 40.1 °F 29.71 in SE 3 mph 12 mph 65% 0.00 in 0 W/m2
21:20 51.4 °F 40.1 °F 29.72 in ESE 3 mph 10 mph 65% 0.00 in 0 W/m2
21:30 51.4 °F 40.1 °F 29.72 in ESE 3 mph 7 mph 65% 0.00 in 0 W/m2
21:40 51.3 °F 40.7 °F 29.71 in East 3 mph 12 mph 67% 0.00 in 0 W/m2
21:50 51.1 °F 40.5 °F 29.71 in ESE 3 mph 7 mph 67% 0.00 in 0 W/m2
22:00 50.7 °F 40.2 °F 29.71 in SSE 7 mph 12 mph 67% 0.00 in 0 W/m2
22:10 51.3 °F 39.9 °F 29.71 in SSE 9 mph 15 mph 65% 0.00 in 0 W/m2
22:20 51.4 °F 40.1 °F 29.71 in SSE 8 mph 16 mph 65% 0.00 in 0 W/m2
22:30 51.3 °F 40 °F 29.71 in South 6 mph 14 mph 65% 0.00 in 0 W/m2
22:40 51.3 °F 39.9 °F 29.71 in SSW 5 mph 12 mph 65% 0.00 in 0 W/m2
22:50 51.1 °F 39.7 °F 29.71 in South 3 mph 8 mph 65% 0.00 in 0 W/m2
23:00 51.3 °F 39.9 °F 29.71 in South 6 mph 12 mph 65% 0.00 in 0 W/m2
23:10 51.4 °F 40.1 °F 29.71 in SSE 9 mph 16 mph 65% 0.00 in 0 W/m2
23:20 51.6 °F 40.2 °F 29.71 in SSE 7 mph 14 mph 65% 0.00 in 0 W/m2
23:30 51.4 °F 40.1 °F 29.71 in SSE 3 mph 9 mph 65% 0.00 in 0 W/m2
23:40 51.4 °F 40.1 °F 29.71 in SE 6 mph 10 mph 65% 0.00 in 0 W/m2
23:50 51.4 °F 40.8 °F 29.71 in SSE 2 mph 10 mph 67% 0.00 in 0 W/m2
Knjazevac, Serbia
Compliments of Weather Underground - 2 mb